Time;durP1;ratioP1;P1;durP2;ratioP2;P2;SDS_P1;SDS_P2;PMS_P1;PMS_P2;Temp;Humidity;BMP_temperature;BMP_pressure;BME280_temperature;BME280_humidity;BME280_pressure;Samples;Min_cycle;Max_cycle;Signal;HPM_P1;HPM_P2
2022/02/07 00:03:46;;;;;;;1.27;0.90;;;;;;;;;;5027816;28;20065;-49
2022/02/07 00:06:13;;;;;;;1.42;0.85;;;;;;;;;;5024506;28;20394;-47
2022/02/07 00:08:40;;;;;;;1.10;0.80;;;;;;;;;;5025198;28;20032;-49
2022/02/07 00:11:06;;;;;;;0.90;0.70;;;;;;;;;;5043919;28;20447;-50
2022/02/07 00:13:33;;;;;;;0.77;0.60;;;;;;;;;;5039323;28;20021;-50
2022/02/07 00:15:59;;;;;;;0.70;0.60;;;;;;;;;;5044195;28;20037;-49
2022/02/07 00:18:25;;;;;;;0.60;0.60;;;;;;;;;;5038653;28;20501;-49
2022/02/07 00:20:53;;;;;;;0.60;0.60;;;;;;;;;;5023591;28;20022;-50
2022/02/07 00:23:19;;;;;;;0.70;0.60;;;;;;;;;;5023231;28;20032;-50
2022/02/07 00:25:45;;;;;;;1.33;0.85;;;;;;;;;;5024019;28;20108;-47
2022/02/07 00:28:11;;;;;;;2.97;1.70;;;;;;;;;;5023626;28;20112;-52
2022/02/07 00:30:38;;;;;;;1.67;1.10;;;;;;;;;;5022194;28;20139;-50
2022/02/07 00:33:04;;;;;;;1.48;0.90;;;;;;;;;;5024141;28;20026;-47
2022/02/07 00:35:30;;;;;;;1.35;0.90;;;;;;;;;;5038258;28;20033;-48
2022/02/07 00:38:01;;;;;;;1.30;0.82;;;;;;;;;;5044165;28;20040;-47
2022/02/07 00:46:22;;;;;;;1.88;1.17;;;;;;;;;;5024348;28;20064;-48
2022/02/07 00:48:40;;;;;;;1.30;0.93;;;;;;;;;;5024938;28;20601;-48
2022/02/07 00:51:07;;;;;;;2.03;1.08;;;;;;;;;;5024184;28;20033;-50
2022/02/07 00:53:33;;;;;;;1.73;0.98;;;;;;;;;;5024069;28;20040;-50
2022/02/07 00:56:00;;;;;;;1.63;0.93;;;;;;;;;;5042428;28;20488;-48
2022/02/07 00:58:27;;;;;;;2.45;1.30;;;;;;;;;;5048103;28;20500;-47
2022/02/07 01:00:53;;;;;;;2.55;1.38;;;;;;;;;;5048664;28;20500;-47
2022/02/07 01:03:20;;;;;;;2.13;1.42;;;;;;;;;;5066934;28;20502;-50
2022/02/07 01:05:47;;;;;;;2.53;1.20;;;;;;;;;;5034747;28;20032;-48
2022/02/07 01:08:13;;;;;;;2.65;1.38;;;;;;;;;;5027410;28;20055;-48
2022/02/07 01:10:51;;;;;;;1.48;1.10;;;;;;;;;;5027455;28;20038;-48
2022/02/07 01:48:56;;;;;;;1.20;0.60;;;;;;;;;;5047469;28;19944;-46
2022/02/07 01:56:35;;;;;;;1.17;0.60;;;;;;;;;;5045143;28;20037;-49
2022/02/07 01:59:01;;;;;;;0.47;0.40;;;;;;;;;;5046764;28;20025;-51
2022/02/07 02:01:28;;;;;;;0.63;0.43;;;;;;;;;;5046775;28;20032;-47
2022/02/07 02:03:54;;;;;;;0.80;0.65;;;;;;;;;;5046495;28;20042;-47
2022/02/07 02:06:21;;;;;;;0.63;0.52;;;;;;;;;;5036490;28;20041;-48
2022/02/07 02:08:47;;;;;;;1.27;0.55;;;;;;;;;;5025326;28;20424;-50
2022/02/07 02:11:13;;;;;;;0.90;0.52;;;;;;;;;;5026209;28;20025;-47
2022/02/07 02:16:18;;;;;;;0.50;0.50;;;;;;;;;;5025386;28;20033;-48
2022/02/07 02:37:32;;;;;;;1.02;0.60;;;;;;;;;;5025485;28;20378;-50
2022/02/07 02:45:31;;;;;;;0.60;0.50;;;;;;;;;;5025602;28;20052;-47
2022/02/07 02:48:02;;;;;;;0.63;0.45;;;;;;;;;;5026042;28;20029;-50
2022/02/07 02:50:33;;;;;;;0.28;0.28;;;;;;;;;;5042828;28;20025;-48
2022/02/07 02:53:01;;;;;;;0.38;0.30;;;;;;;;;;5045966;28;20024;-47
2022/02/07 02:55:27;;;;;;;1.20;0.50;;;;;;;;;;5045851;28;20033;-51
2022/02/07 02:57:53;;;;;;;0.30;0.30;;;;;;;;;;5044038;28;20084;-46
2022/02/07 03:00:20;;;;;;;0.75;0.40;;;;;;;;;;5044937;28;20036;-50
2022/02/07 03:02:47;;;;;;;0.40;0.40;;;;;;;;;;5045185;28;20033;-50
2022/02/07 03:05:15;;;;;;;0.40;0.40;;;;;;;;;;5045185;28;20526;-48
2022/02/07 03:07:42;;;;;;;1.85;0.40;;;;;;;;;;5044254;28;20033;-47
2022/02/07 03:10:08;;;;;;;0.30;0.30;;;;;;;;;;5045382;28;20074;-49
2022/02/07 03:12:44;;;;;;;0.35;0.35;;;;;;;;;;5045278;28;20025;-46
2022/02/07 03:17:57;;;;;;;1.38;0.60;;;;;;;;;;5044657;28;21014;-47
2022/02/07 03:20:23;;;;;;;0.30;0.30;;;;;;;;;;5045059;28;20033;-47
2022/02/07 03:22:49;;;;;;;0.40;0.40;;;;;;;;;;5045235;28;20037;-51
2022/02/07 03:25:16;;;;;;;0.75;0.47;;;;;;;;;;5041396;28;20099;-51
2022/02/07 03:27:43;;;;;;;0.22;0.22;;;;;;;;;;5033780;28;20071;-46
2022/02/07 03:30:09;;;;;;;0.95;0.50;;;;;;;;;;5044951;28;20104;-48
2022/02/07 03:32:35;;;;;;;0.35;0.32;;;;;;;;;;5045355;28;20103;-48
2022/02/07 03:35:01;;;;;;;0.45;0.40;;;;;;;;;;5043937;28;20243;-47
2022/02/07 03:37:27;;;;;;;0.47;0.30;;;;;;;;;;5044241;28;20039;-47
2022/02/07 03:39:53;;;;;;;0.30;0.30;;;;;;;;;;5044928;28;20108;-48
2022/02/07 03:42:19;;;;;;;0.30;0.30;;;;;;;;;;5044817;28;20034;-47
2022/02/07 03:44:45;;;;;;;0.30;0.30;;;;;;;;;;5044857;28;20040;-46
2022/02/07 03:47:11;;;;;;;0.47;0.40;;;;;;;;;;5040924;28;20411;-49
2022/02/07 03:49:37;;;;;;;0.30;0.30;;;;;;;;;;5024764;28;20076;-48
2022/02/07 03:52:08;;;;;;;0.50;0.40;;;;;;;;;;5025008;28;20124;-46
2022/02/07 03:54:34;;;;;;;0.30;0.30;;;;;;;;;;5025011;28;20032;-47
2022/02/07 03:57:00;;;;;;;0.82;0.47;;;;;;;;;;5029314;28;20017;-47
2022/02/07 03:59:26;;;;;;;0.30;0.30;;;;;;;;;;5044811;28;20029;-46
2022/02/07 04:01:52;;;;;;;0.43;0.30;;;;;;;;;;5044590;28;20430;-50
2022/02/07 04:04:19;;;;;;;0.20;0.20;;;;;;;;;;5040422;28;20461;-47
2022/02/07 04:06:45;;;;;;;0.55;0.30;;;;;;;;;;5043476;28;20083;-49
2022/02/07 04:09:15;;;;;;;0.45;0.30;;;;;;;;;;5044000;28;20511;-47
2022/02/07 04:11:48;;;;;;;0.20;0.20;;;;;;;;;;5044692;28;20021;-48
2022/02/07 04:14:21;;;;;;;0.20;0.20;;;;;;;;;;5041633;28;20052;-47
2022/02/07 04:16:47;;;;;;;0.38;0.20;;;;;;;;;;5043011;28;20041;-48
2022/02/07 04:19:18;;;;;;;0.50;0.30;;;;;;;;;;5025475;28;20128;-47
2022/02/07 04:21:45;;;;;;;0.30;0.30;;;;;;;;;;5024669;28;20030;-48
2022/02/07 04:24:11;;;;;;;0.38;0.30;;;;;;;;;;5024451;28;20033;-47
2022/02/07 04:26:37;;;;;;;1.02;0.30;;;;;;;;;;5024730;28;20029;-47
2022/02/07 04:29:04;;;;;;;0.70;0.40;;;;;;;;;;5044189;28;20025;-46
2022/02/07 04:31:31;;;;;;;0.30;0.30;;;;;;;;;;5045572;28;20053;-48
2022/02/07 04:33:58;;;;;;;0.30;0.30;;;;;;;;;;5047207;28;20063;-48
2022/02/07 04:36:24;;;;;;;0.32;0.32;;;;;;;;;;5048670;28;20025;-48
2022/02/07 04:38:51;;;;;;;0.30;0.30;;;;;;;;;;5045117;28;20037;-48
2022/02/07 04:41:17;;;;;;;0.30;0.30;;;;;;;;;;5047972;28;20036;-49
2022/02/07 04:43:51;;;;;;;0.30;0.30;;;;;;;;;;5048002;28;20025;-50
2022/02/07 04:46:50;;;;;;;1.77;1.50;;;;;;;;;;5047938;28;20040;-48
2022/02/07 04:57:48;;;;;;;1.92;1.40;;;;;;;;;;5027536;28;20041;-49
2022/02/07 05:04:44;;;;;;;1.77;1.10;;;;;;;;;;5027901;28;20029;-49
2022/02/07 05:15:23;;;;;;;0.90;0.70;;;;;;;;;;5047758;28;20044;-48
2022/02/07 05:17:50;;;;;;;1.88;0.90;;;;;;;;;;5043902;28;20033;-46
2022/02/07 05:20:16;;;;;;;0.47;0.40;;;;;;;;;;5046415;28;20037;-48
2022/02/07 05:22:42;;;;;;;1.27;0.50;;;;;;;;;;5047128;28;20033;-51
2022/02/07 05:25:09;;;;;;;0.90;0.60;;;;;;;;;;5047831;28;20021;-47
2022/02/07 05:27:35;;;;;;;0.77;0.50;;;;;;;;;;5046255;28;20028;-48
2022/02/07 05:30:01;;;;;;;1.27;0.55;;;;;;;;;;5046946;28;20099;-48
2022/02/07 05:32:29;;;;;;;0.73;0.60;;;;;;;;;;5044866;28;20458;-49
2022/02/07 05:34:55;;;;;;;1.92;0.55;;;;;;;;;;5047841;28;20407;-47
2022/02/07 05:37:21;;;;;;;0.80;0.60;;;;;;;;;;5046778;28;20033;-49
2022/02/07 05:39:52;;;;;;;0.63;0.38;;;;;;;;;;5046752;28;20547;-47
2022/02/07 05:42:18;;;;;;;0.93;0.50;;;;;;;;;;5043555;28;20025;-50
2022/02/07 05:44:46;;;;;;;0.88;0.50;;;;;;;;;;5048113;28;20581;-51
2022/02/07 05:47:13;;;;;;;0.50;0.40;;;;;;;;;;5047994;28;20025;-51
2022/02/07 05:49:40;;;;;;;0.73;0.50;;;;;;;;;;5041516;28;20017;-49
2022/02/07 05:52:06;;;;;;;0.65;0.40;;;;;;;;;;5037177;28;20033;-49
2022/02/07 05:54:32;;;;;;;0.30;0.30;;;;;;;;;;5037064;28;20055;-49
2022/02/07 05:56:58;;;;;;;0.50;0.40;;;;;;;;;;5045118;28;20029;-49
2022/02/07 05:59:24;;;;;;;1.55;0.50;;;;;;;;;;5048070;28;20440;-50
2022/02/07 06:01:50;;;;;;;0.52;0.35;;;;;;;;;;5048047;28;20108;-51
2022/02/07 06:04:16;;;;;;;0.43;0.30;;;;;;;;;;5046589;28;20699;-52
2022/02/07 06:06:42;;;;;;;0.30;0.30;;;;;;;;;;5035165;28;20033;-48
2022/02/07 06:09:08;;;;;;;0.50;0.40;;;;;;;;;;5027825;28;20045;-48
2022/02/07 06:11:35;;;;;;;0.40;0.40;;;;;;;;;;5037888;28;20067;-47
2022/02/07 06:14:01;;;;;;;0.75;0.40;;;;;;;;;;5046490;28;20060;-49
2022/02/07 06:16:28;;;;;;;0.88;0.50;;;;;;;;;;5035425;28;20030;-52
2022/02/07 06:18:55;;;;;;;0.95;0.63;;;;;;;;;;5044766;28;20496;-49
2022/02/07 06:21:21;;;;;;;1.55;1.08;;;;;;;;;;5052953;28;20021;-48
2022/02/07 06:23:47;;;;;;;3.65;1.80;;;;;;;;;;5046535;28;20037;-48
2022/02/07 06:26:14;;;;;;;3.72;1.85;;;;;;;;;;5045973;28;20585;-50
2022/02/07 06:28:40;;;;;;;3.60;2.03;;;;;;;;;;5048112;28;20021;-47
2022/02/07 06:31:06;;;;;;;2.78;1.77;;;;;;;;;;5048377;28;20380;-49
2022/02/07 06:33:32;;;;;;;2.58;1.50;;;;;;;;;;5032421;28;20033;-50
2022/02/07 06:35:59;;;;;;;1.65;1.10;;;;;;;;;;5045447;28;20685;-49
2022/02/07 06:38:25;;;;;;;2.45;1.35;;;;;;;;;;5040112;28;20037;-49
2022/02/07 06:40:52;;;;;;;1.50;1.10;;;;;;;;;;5026052;28;20036;-48
2022/02/07 06:43:18;;;;;;;1.98;0.90;;;;;;;;;;5026901;28;20080;-48
2022/02/07 06:45:44;;;;;;;0.60;0.60;;;;;;;;;;5034516;28;20413;-48
2022/02/07 06:48:10;;;;;;;1.10;0.90;;;;;;;;;;5025836;28;20025;-48
2022/02/07 06:50:36;;;;;;;1.77;0.85;;;;;;;;;;5032754;28;20067;-48
2022/02/07 06:53:02;;;;;;;1.20;0.75;;;;;;;;;;5045797;28;20032;-48
2022/02/07 06:55:28;;;;;;;1.15;0.88;;;;;;;;;;5044617;28;20151;-47
2022/02/07 06:57:54;;;;;;;0.98;0.90;;;;;;;;;;5045021;28;20462;-48
2022/02/07 07:00:20;;;;;;;0.93;0.70;;;;;;;;;;5043848;28;20025;-49
2022/02/07 07:02:48;;;;;;;1.30;0.77;;;;;;;;;;5045455;28;20021;-48
2022/02/07 07:05:20;;;;;;;0.85;0.85;;;;;;;;;;5045955;28;20027;-48
2022/02/07 07:07:47;;;;;;;1.52;0.88;;;;;;;;;;5046039;28;20463;-48
2022/02/07 07:10:13;;;;;;;1.80;0.77;;;;;;;;;;5041014;28;21079;-47
2022/02/07 07:12:42;;;;;;;1.00;0.80;;;;;;;;;;5031346;28;20041;-50
2022/02/07 07:17:35;;;;;;;0.88;0.63;;;;;;;;;;5029839;28;20060;-50
2022/02/07 07:20:03;;;;;;;0.93;0.60;;;;;;;;;;5046401;28;20061;-49
2022/02/07 07:22:31;;;;;;;1.42;0.50;;;;;;;;;;5046124;28;20029;-48
2022/02/07 07:24:57;;;;;;;0.73;0.47;;;;;;;;;;5046446;28;20021;-49
2022/02/07 07:27:27;;;;;;;1.00;0.57;;;;;;;;;;5046181;28;20476;-50
2022/02/07 07:29:53;;;;;;;0.57;0.50;;;;;;;;;;5045017;28;20033;-47
2022/02/07 07:32:23;;;;;;;1.48;0.50;;;;;;;;;;5039826;28;20108;-48
2022/02/07 07:34:49;;;;;;;1.65;0.60;;;;;;;;;;5046334;28;20033;-48
2022/02/07 07:37:15;;;;;;;0.70;0.60;;;;;;;;;;5029900;28;20460;-49
2022/02/07 07:39:42;;;;;;;0.70;0.63;;;;;;;;;;5026626;28;20436;-49
2022/02/07 07:42:09;;;;;;;2.08;0.65;;;;;;;;;;5027115;28;20017;-48
2022/02/07 07:44:37;;;;;;;1.13;0.40;;;;;;;;;;5026952;28;20076;-48
2022/02/07 07:47:11;;;;;;;0.88;0.65;;;;;;;;;;5035905;28;20488;-51
2022/02/07 07:49:56;;;;;;;1.25;0.60;;;;;;;;;;5029522;28;20059;-49
2022/02/07 07:52:31;;;;;;;1.38;0.65;;;;;;;;;;5044848;28;20021;-47
2022/02/07 07:55:24;;;;;;;2.55;0.75;;;;;;;;;;5024613;28;20041;-48
2022/02/07 08:03:15;;;;;;;1.77;0.60;;;;;;;;;;5023972;28;19958;-52
2022/02/07 08:08:21;;;;;;;1.05;0.63;;;;;;;;;;5030566;28;20053;-49
2022/02/07 08:11:11;;;;;;;0.77;0.50;;;;;;;;;;5050461;28;20013;-48
2022/02/07 08:13:34;;;;;;;1.10;0.63;;;;;;;;;;5040547;28;20033;-48
2022/02/07 08:16:00;;;;;;;1.83;0.57;;;;;;;;;;5030687;28;20116;-48
2022/02/07 08:18:26;;;;;;;1.65;0.77;;;;;;;;;;5029850;28;20029;-49
2022/02/07 08:20:52;;;;;;;1.20;0.68;;;;;;;;;;5030464;28;20611;-49
2022/02/07 08:23:19;;;;;;;1.45;0.85;;;;;;;;;;5029705;28;20583;-50
2022/02/07 08:25:45;;;;;;;1.30;0.90;;;;;;;;;;5029889;28;20075;-51
2022/02/07 08:28:11;;;;;;;1.85;0.50;;;;;;;;;;5043113;28;20032;-48
2022/02/07 08:30:37;;;;;;;3.42;0.95;;;;;;;;;;5048472;28;20033;-49
2022/02/07 08:33:03;;;;;;;1.73;0.70;;;;;;;;;;5049719;28;20731;-51
2022/02/07 08:35:30;;;;;;;2.95;1.00;;;;;;;;;;5046553;28;20755;-49
2022/02/07 08:37:59;;;;;;;2.55;0.77;;;;;;;;;;5029107;28;20065;-51
2022/02/07 08:40:30;;;;;;;0.95;0.50;;;;;;;;;;5029508;28;20052;-51
2022/02/07 08:42:56;;;;;;;1.25;0.82;;;;;;;;;;5029254;28;20034;-49
2022/02/07 08:45:23;;;;;;;0.57;0.57;;;;;;;;;;5029318;28;20033;-51
2022/02/07 08:47:50;;;;;;;1.98;0.85;;;;;;;;;;5028181;28;20064;-53
2022/02/07 08:50:16;;;;;;;2.42;1.10;;;;;;;;;;5028678;28;20020;-49
2022/02/07 08:52:47;;;;;;;1.25;0.90;;;;;;;;;;5028546;28;20513;-51
2022/02/07 08:55:22;;;;;;;1.63;0.93;;;;;;;;;;5028298;28;20099;-51
2022/02/07 08:57:54;;;;;;;0.98;0.80;;;;;;;;;;5034041;28;20136;-52
2022/02/07 09:00:37;;;;;;;1.30;0.80;;;;;;;;;;5028093;28;20017;-49
2022/02/07 09:03:17;;;;;;;1.13;0.68;;;;;;;;;;5028073;28;20028;-48
2022/02/07 09:10:44;;;;;;;1.33;0.50;;;;;;;;;;5027336;28;20113;-50
2022/02/07 09:13:10;;;;;;;1.23;0.50;;;;;;;;;;5027432;28;20029;-50
2022/02/07 09:18:11;;;;;;;1.05;0.50;;;;;;;;;;5027137;28;20061;-49
2022/02/07 09:20:43;;;;;;;1.30;0.60;;;;;;;;;;5028005;28;20108;-50
2022/02/07 09:23:10;;;;;;;1.25;0.98;;;;;;;;;;5027113;28;20033;-49
2022/02/07 09:25:36;;;;;;;0.60;0.60;;;;;;;;;;5027404;28;20453;-49
2022/02/07 09:28:03;;;;;;;0.50;0.50;;;;;;;;;;5027390;28;20063;-52
2022/02/07 09:30:29;;;;;;;1.10;0.60;;;;;;;;;;5027235;28;20021;-51
2022/02/07 09:32:56;;;;;;;0.93;0.50;;;;;;;;;;5027438;28;20079;-51
2022/02/07 09:35:22;;;;;;;0.93;0.60;;;;;;;;;;5027544;28;20455;-50
2022/02/07 09:37:48;;;;;;;2.30;0.60;;;;;;;;;;5026913;28;20274;-52
2022/02/07 09:40:15;;;;;;;1.15;0.40;;;;;;;;;;5040361;28;20037;-52
2022/02/07 09:42:47;;;;;;;1.48;0.50;;;;;;;;;;5032871;28;20033;-52
2022/02/07 09:45:31;;;;;;;1.92;0.70;;;;;;;;;;5028441;28;20075;-49
2022/02/07 09:47:58;;;;;;;1.85;0.80;;;;;;;;;;5032991;28;20030;-49
2022/02/07 09:50:25;;;;;;;1.23;0.65;;;;;;;;;;5035127;28;20099;-51
2022/02/07 09:52:51;;;;;;;1.30;0.52;;;;;;;;;;5044191;28;20374;-49
2022/02/07 09:55:17;;;;;;;2.50;0.57;;;;;;;;;;5042976;28;20033;-49
2022/02/07 09:57:43;;;;;;;2.85;0.50;;;;;;;;;;5037878;28;20033;-48
2022/02/07 10:00:18;;;;;;;1.13;0.75;;;;;;;;;;5033081;28;20033;-51
2022/02/07 10:03:03;;;;;;;1.27;0.57;;;;;;;;;;5047789;28;20036;-50
2022/02/07 10:05:32;;;;;;;1.98;0.80;;;;;;;;;;5046886;28;20444;-48
2022/02/07 10:08:12;;;;;;;2.25;0.63;;;;;;;;;;5046870;28;20029;-48
2022/02/07 10:10:51;;;;;;;1.85;0.80;;;;;;;;;;5047530;28;20067;-49
2022/02/07 10:16:34;;;;;;;1.98;1.00;;;;;;;;;;5034633;28;20037;-51
2022/02/07 10:38:50;;;;;;;1.23;0.60;;;;;;;;;;5045366;28;20051;-48
2022/02/07 10:41:42;;;;;;;2.47;0.90;;;;;;;;;;5046481;28;20028;-49
2022/02/07 10:44:42;;;;;;;3.17;0.77;;;;;;;;;;5028334;28;20473;-49
2022/02/07 10:47:18;;;;;;;1.92;0.60;;;;;;;;;;5045578;28;20036;-52
2022/02/07 10:50:01;;;;;;;1.95;0.77;;;;;;;;;;5057415;28;20139;-52
2022/02/07 10:52:28;;;;;;;1.23;0.60;;;;;;;;;;5047539;28;20206;-52
2022/02/07 10:54:54;;;;;;;2.10;0.50;;;;;;;;;;5048993;28;20079;-50
2022/02/07 10:57:20;;;;;;;2.97;0.70;;;;;;;;;;5059560;28;20036;-50
2022/02/07 10:59:47;;;;;;;1.25;0.73;;;;;;;;;;5035469;28;20032;-51
2022/02/07 11:02:43;;;;;;;1.88;0.60;;;;;;;;;;5047623;28;20013;-51
2022/02/07 11:05:13;;;;;;;1.55;0.60;;;;;;;;;;5033947;28;20547;-52
2022/02/07 11:07:39;;;;;;;1.77;0.75;;;;;;;;;;5027960;28;20132;-52
2022/02/07 11:13:24;;;;;;;1.17;0.68;;;;;;;;;;5031629;28;20098;-52
2022/02/07 11:16:05;;;;;;;1.33;0.60;;;;;;;;;;5041152;28;20112;-51
2022/02/07 11:19:08;;;;;;;2.25;0.57;;;;;;;;;;5029090;28;20036;-52
2022/02/07 11:21:46;;;;;;;1.95;0.73;;;;;;;;;;5038667;28;20028;-48
2022/02/07 11:24:24;;;;;;;3.80;0.80;;;;;;;;;;5042292;28;20456;-50
2022/02/07 11:26:51;;;;;;;1.98;0.80;;;;;;;;;;5032523;28;20473;-50
2022/02/07 11:29:36;;;;;;;3.13;1.10;;;;;;;;;;5035676;28;20524;-51
2022/02/07 11:32:02;;;;;;;3.72;0.90;;;;;;;;;;5039078;28;20024;-49
2022/02/07 11:34:41;;;;;;;1.73;0.70;;;;;;;;;;5045830;28;20112;-48
2022/02/07 11:37:18;;;;;;;2.67;0.82;;;;;;;;;;5026349;28;20052;-52
2022/02/07 11:39:48;;;;;;;2.30;0.70;;;;;;;;;;5039139;28;20821;-51
2022/02/07 11:42:14;;;;;;;0.98;0.50;;;;;;;;;;5035130;28;20063;-52
2022/02/07 11:44:43;;;;;;;2.78;1.10;;;;;;;;;;5039618;28;20069;-53
2022/02/07 11:47:15;;;;;;;2.28;0.82;;;;;;;;;;5040259;28;20403;-52
2022/02/07 11:49:42;;;;;;;2.17;0.65;;;;;;;;;;5044126;28;20029;-50
2022/02/07 11:52:27;;;;;;;2.13;0.85;;;;;;;;;;5039839;28;20040;-52
2022/02/07 11:55:03;;;;;;;1.35;0.70;;;;;;;;;;5049771;28;20436;-51
2022/02/07 11:57:36;;;;;;;1.55;0.80;;;;;;;;;;5034137;28;20033;-48
2022/02/07 12:00:10;;;;;;;1.58;0.98;;;;;;;;;;5032714;28;20515;-49
2022/02/07 12:02:37;;;;;;;2.10;0.70;;;;;;;;;;5031362;28;20030;-49
2022/02/07 12:05:07;;;;;;;2.17;0.70;;;;;;;;;;5038973;28;20117;-49
2022/02/07 12:07:37;;;;;;;1.65;0.70;;;;;;;;;;5026725;28;20038;-51
2022/02/07 12:10:43;;;;;;;2.30;1.00;;;;;;;;;;5033734;28;20103;-51
2022/02/07 12:13:28;;;;;;;2.78;1.15;;;;;;;;;;5040991;28;20388;-51
2022/02/07 12:15:56;;;;;;;1.70;0.93;;;;;;;;;;5026278;28;20057;-52
2022/02/07 12:18:23;;;;;;;2.63;1.10;;;;;;;;;;5027061;28;20435;-50
2022/02/07 12:20:51;;;;;;;2.00;1.08;;;;;;;;;;5027317;28;20029;-50
2022/02/07 12:23:21;;;;;;;3.20;1.38;;;;;;;;;;5043762;28;20048;-52
2022/02/07 12:25:57;;;;;;;3.22;1.33;;;;;;;;;;5045635;28;20020;-50
2022/02/07 12:28:34;;;;;;;2.58;1.38;;;;;;;;;;5037869;28;20029;-51
2022/02/07 12:31:17;;;;;;;3.28;1.27;;;;;;;;;;5031386;28;20021;-52
2022/02/07 12:33:49;;;;;;;2.50;1.00;;;;;;;;;;5035589;28;20120;-49
2022/02/07 12:36:15;;;;;;;1.33;0.88;;;;;;;;;;5036403;28;20512;-50
2022/02/07 12:38:43;;;;;;;2.20;0.85;;;;;;;;;;5038345;28;20048;-52
2022/02/07 12:41:11;;;;;;;2.85;0.70;;;;;;;;;;5033850;28;20041;-52
2022/02/07 12:43:39;;;;;;;1.20;0.73;;;;;;;;;;5042300;28;20090;-49
2022/02/07 12:46:08;;;;;;;1.98;0.90;;;;;;;;;;5041978;28;20033;-52
2022/02/07 12:48:37;;;;;;;0.75;0.68;;;;;;;;;;5025452;28;20022;-51
2022/02/07 12:51:03;;;;;;;1.90;1.00;;;;;;;;;;5025503;28;20033;-52
2022/02/07 12:53:30;;;;;;;2.15;1.17;;;;;;;;;;5028007;28;20033;-50
2022/02/07 12:56:01;;;;;;;2.67;1.20;;;;;;;;;;5029016;28;20037;-52
2022/02/07 12:58:28;;;;;;;1.65;0.70;;;;;;;;;;5034018;28;20025;-51
2022/02/07 13:00:55;;;;;;;1.85;0.60;;;;;;;;;;5038176;28;20036;-48
2022/02/07 13:03:21;;;;;;;1.33;0.80;;;;;;;;;;5044598;28;20412;-51
2022/02/07 13:05:49;;;;;;;1.95;1.00;;;;;;;;;;5068839;28;20047;-52
2022/02/07 13:08:16;;;;;;;2.17;0.80;;;;;;;;;;5068216;28;20427;-51
2022/02/07 13:10:51;;;;;;;1.10;0.57;;;;;;;;;;5068664;28;20024;-49
2022/02/07 13:13:48;;;;;;;1.85;0.90;;;;;;;;;;5068511;28;20031;-50
2022/02/07 13:16:15;;;;;;;1.65;0.70;;;;;;;;;;5068936;28;20024;-50
2022/02/07 13:18:41;;;;;;;2.25;0.85;;;;;;;;;;5068555;28;20073;-49
2022/02/07 13:21:12;;;;;;;1.90;0.68;;;;;;;;;;5054835;28;20033;-50
2022/02/07 13:23:40;;;;;;;1.73;0.70;;;;;;;;;;5037282;28;20033;-51
2022/02/07 13:26:09;;;;;;;1.88;0.77;;;;;;;;;;5030031;28;20025;-52
2022/02/07 13:28:39;;;;;;;3.22;0.98;;;;;;;;;;5034588;28;20021;-52
2022/02/07 13:31:06;;;;;;;2.00;0.77;;;;;;;;;;5047763;28;20028;-50
2022/02/07 13:33:44;;;;;;;1.15;0.80;;;;;;;;;;5049680;28;20504;-49
2022/02/07 13:36:10;;;;;;;1.55;0.60;;;;;;;;;;5043882;28;20416;-51
2022/02/07 13:38:37;;;;;;;0.98;0.45;;;;;;;;;;5039328;28;20033;-50
2022/02/07 13:41:04;;;;;;;0.98;0.55;;;;;;;;;;5040654;28;20079;-51
2022/02/07 13:43:31;;;;;;;1.95;0.70;;;;;;;;;;5043058;28;20031;-51
2022/02/07 13:46:02;;;;;;;1.00;0.70;;;;;;;;;;5053407;28;20029;-49
2022/02/07 13:48:28;;;;;;;1.75;0.80;;;;;;;;;;5047779;28;20021;-51
2022/02/07 13:50:56;;;;;;;2.83;0.95;;;;;;;;;;5047522;28;20091;-52
2022/02/07 13:53:24;;;;;;;1.92;0.90;;;;;;;;;;5048278;28;20029;-50
2022/02/07 13:55:52;;;;;;;2.20;1.00;;;;;;;;;;5048698;28;20036;-51
2022/02/07 13:58:19;;;;;;;1.55;0.80;;;;;;;;;;5044048;28;20056;-50
2022/02/07 14:00:45;;;;;;;0.85;0.70;;;;;;;;;;5030533;28;20171;-51
2022/02/07 14:03:13;;;;;;;1.55;0.63;;;;;;;;;;5036107;28;20567;-49
2022/02/07 14:05:50;;;;;;;1.25;0.60;;;;;;;;;;5043024;28;20036;-50
2022/02/07 14:08:17;;;;;;;2.13;1.00;;;;;;;;;;5067262;28;20052;-52
2022/02/07 14:10:44;;;;;;;1.35;0.70;;;;;;;;;;5050315;28;20036;-50
2022/02/07 14:13:17;;;;;;;2.40;0.98;;;;;;;;;;5057777;28;20051;-51
2022/02/07 14:15:44;;;;;;;3.83;0.90;;;;;;;;;;5067697;28;20031;-48
2022/02/07 14:18:13;;;;;;;2.25;0.82;;;;;;;;;;5067348;28;20035;-51
2022/02/07 14:20:39;;;;;;;1.92;0.80;;;;;;;;;;5053075;28;20025;-49
2022/02/07 14:23:06;;;;;;;2.70;0.85;;;;;;;;;;5035772;28;20497;-50
2022/02/07 14:25:32;;;;;;;1.48;0.75;;;;;;;;;;5038267;28;20033;-48
2022/02/07 14:28:02;;;;;;;2.60;0.70;;;;;;;;;;5048973;28;20078;-50
2022/02/07 14:30:30;;;;;;;2.35;0.95;;;;;;;;;;5051611;28;20086;-50
2022/02/07 14:32:57;;;;;;;1.05;0.50;;;;;;;;;;5047424;28;20033;-50
2022/02/07 14:35:23;;;;;;;1.38;0.77;;;;;;;;;;5047489;28;20028;-49
2022/02/07 14:37:49;;;;;;;2.47;0.80;;;;;;;;;;5047572;28;20071;-51
2022/02/07 14:40:16;;;;;;;3.00;0.75;;;;;;;;;;5041768;28;20033;-51
2022/02/07 14:42:43;;;;;;;1.05;0.60;;;;;;;;;;5029766;28;20040;-49
2022/02/07 14:45:17;;;;;;;2.53;0.85;;;;;;;;;;5044912;28;20059;-49
2022/02/07 14:50:13;;;;;;;2.15;0.80;;;;;;;;;;5034679;28;20025;-48
2022/02/07 14:52:39;;;;;;;1.60;0.82;;;;;;;;;;5037439;28;20033;-51
2022/02/07 14:55:07;;;;;;;1.90;0.70;;;;;;;;;;5046766;28;20500;-50
2022/02/07 14:57:33;;;;;;;1.85;0.80;;;;;;;;;;5034688;28;20343;-51
2022/02/07 14:59:59;;;;;;;1.88;0.90;;;;;;;;;;5026702;28;20396;-50
2022/02/07 15:02:26;;;;;;;2.67;0.70;;;;;;;;;;5027928;28;20063;-52
2022/02/07 15:04:55;;;;;;;4.53;0.80;;;;;;;;;;5031555;28;20047;-52
2022/02/07 15:07:21;;;;;;;2.72;0.98;;;;;;;;;;5046854;28;20036;-51
2022/02/07 15:09:49;;;;;;;1.42;0.68;;;;;;;;;;5046518;28;20048;-50
2022/02/07 15:12:15;;;;;;;1.80;0.80;;;;;;;;;;5031552;28;20037;-50
2022/02/07 15:14:42;;;;;;;2.92;0.90;;;;;;;;;;5042545;28;20022;-50
2022/02/07 15:17:09;;;;;;;2.35;1.00;;;;;;;;;;5040203;28;20040;-50
2022/02/07 15:19:35;;;;;;;2.20;0.90;;;;;;;;;;5041278;28;20036;-49
2022/02/07 15:22:03;;;;;;;1.38;0.75;;;;;;;;;;5027492;28;20111;-52
2022/02/07 15:24:31;;;;;;;1.70;0.80;;;;;;;;;;5031162;28;20060;-49
2022/02/07 15:26:57;;;;;;;2.90;0.93;;;;;;;;;;5047437;28;20134;-51
2022/02/07 15:29:24;;;;;;;2.60;0.93;;;;;;;;;;5046766;28;20021;-50
2022/02/07 15:31:59;;;;;;;3.80;1.10;;;;;;;;;;5037143;28;20043;-51
2022/02/07 15:34:25;;;;;;;2.55;1.05;;;;;;;;;;5027433;28;20029;-51
2022/02/07 15:36:51;;;;;;;2.97;1.08;;;;;;;;;;5028319;28;20497;-52
2022/02/07 15:39:18;;;;;;;1.75;0.82;;;;;;;;;;5046954;28;20615;-52
2022/02/07 15:41:44;;;;;;;2.67;0.65;;;;;;;;;;5041695;28;20543;-53
2022/02/07 15:44:10;;;;;;;3.15;1.00;;;;;;;;;;5030086;28;20120;-49
2022/02/07 15:46:38;;;;;;;2.88;0.90;;;;;;;;;;5046451;28;20075;-53
2022/02/07 15:49:04;;;;;;;1.10;0.77;;;;;;;;;;5036832;28;20536;-48
2022/02/07 15:51:30;;;;;;;1.48;0.80;;;;;;;;;;5037280;28;20056;-48
2022/02/07 15:53:56;;;;;;;2.08;0.80;;;;;;;;;;5041763;28;20464;-49
2022/02/07 15:56:22;;;;;;;2.80;1.00;;;;;;;;;;5035415;28;20117;-51
2022/02/07 15:58:48;;;;;;;2.65;1.05;;;;;;;;;;5037419;28;20037;-52
2022/02/07 16:01:14;;;;;;;2.10;0.80;;;;;;;;;;5046641;28;20057;-52
2022/02/07 16:03:40;;;;;;;3.08;1.23;;;;;;;;;;5036464;28;20443;-49
2022/02/07 16:06:06;;;;;;;2.78;1.00;;;;;;;;;;5033180;28;20030;-51
2022/02/07 16:08:34;;;;;;;2.90;1.15;;;;;;;;;;5033793;28;20562;-50
2022/02/07 16:11:01;;;;;;;1.65;0.88;;;;;;;;;;5060885;28;20027;-51
2022/02/07 16:13:33;;;;;;;2.75;1.10;;;;;;;;;;5063228;28;20039;-54
2022/02/07 16:15:59;;;;;;;1.80;0.85;;;;;;;;;;5035731;28;20026;-50
2022/02/07 16:18:25;;;;;;;2.50;1.17;;;;;;;;;;5038943;28;20480;-51
2022/02/07 16:20:54;;;;;;;2.35;0.98;;;;;;;;;;5040783;28;20029;-51
2022/02/07 16:23:22;;;;;;;2.47;1.00;;;;;;;;;;5026963;28;20460;-51
2022/02/07 16:25:50;;;;;;;3.88;0.90;;;;;;;;;;5032059;28;20034;-50
2022/02/07 16:28:17;;;;;;;1.45;0.70;;;;;;;;;;5031019;28;20021;-49
2022/02/07 16:30:45;;;;;;;1.90;1.00;;;;;;;;;;5039212;28;20020;-51
2022/02/07 16:33:12;;;;;;;1.45;0.82;;;;;;;;;;5064236;28;20465;-52
2022/02/07 16:35:39;;;;;;;2.08;0.90;;;;;;;;;;5039236;28;20112;-51
2022/02/07 16:38:05;;;;;;;2.45;1.00;;;;;;;;;;5032311;28;20079;-51
2022/02/07 16:40:32;;;;;;;2.10;1.10;;;;;;;;;;5039198;28;20044;-48
2022/02/07 16:42:58;;;;;;;2.42;1.10;;;;;;;;;;5056804;28;20458;-50
2022/02/07 16:45:37;;;;;;;5.55;2.08;;;;;;;;;;5036129;28;20048;-50
2022/02/07 16:48:05;;;;;;;3.10;1.45;;;;;;;;;;5029261;28;20030;-48
2022/02/07 16:50:31;;;;;;;2.58;1.27;;;;;;;;;;5034304;28;20492;-50
2022/02/07 16:52:57;;;;;;;1.42;1.00;;;;;;;;;;5039261;28;20103;-48
2022/02/07 16:55:23;;;;;;;1.38;0.80;;;;;;;;;;5044096;28;21367;-51
2022/02/07 16:57:49;;;;;;;2.67;1.05;;;;;;;;;;5037673;28;20033;-51
2022/02/07 17:00:16;;;;;;;1.80;0.85;;;;;;;;;;5036348;28;20519;-49
2022/02/07 17:02:45;;;;;;;2.72;1.08;;;;;;;;;;5046302;28;20072;-49
2022/02/07 17:05:11;;;;;;;1.70;0.80;;;;;;;;;;5044742;28;20108;-51
2022/02/07 17:07:37;;;;;;;2.17;0.90;;;;;;;;;;5031299;28;20568;-51
2022/02/07 17:10:04;;;;;;;1.13;0.70;;;;;;;;;;5027357;28;20072;-50
2022/02/07 17:12:30;;;;;;;1.33;0.82;;;;;;;;;;5027415;28;20061;-50
2022/02/07 17:14:56;;;;;;;2.78;1.10;;;;;;;;;;5027543;28;20507;-49
2022/02/07 17:17:25;;;;;;;2.45;1.20;;;;;;;;;;5040228;28;20484;-52
2022/02/07 17:19:51;;;;;;;1.35;0.90;;;;;;;;;;5048120;28;20021;-52